Time;durP1;ratioP1;P1;durP2;ratioP2;P2;SDS_P1;SDS_P2;PMS_P1;PMS_P2;Temp;Humidity;BMP_temperature;BMP_pressure;BME280_temperature;BME280_humidity;BME280_pressure;Samples;Min_cycle;Max_cycle;Signal;HPM_P1;HPM_P2
2023/03/02 00:01:44;;;;;;;29.17;20.53;;;6.80;77.70;;;;;;5039874;28;20437;-65
2023/03/02 00:04:16;;;;;;;30.80;21.40;;;6.80;77.90;;;;;;5048180;28;20918;-65
2023/03/02 00:06:42;;;;;;;30.67;21.07;;;6.70;78.30;;;;;;5052528;28;20555;-65
2023/03/02 00:09:08;;;;;;;30.57;20.43;;;6.70;78.40;;;;;;5052192;28;20501;-65
2023/03/02 00:11:36;;;;;;;31.23;20.93;;;6.70;78.60;;;;;;5049783;28;20437;-64
2023/03/02 00:14:01;;;;;;;33.00;22.23;;;6.70;78.70;;;;;;5047172;28;20307;-65
2023/03/02 00:16:27;;;;;;;29.13;19.27;;;6.70;78.80;;;;;;5042748;28;21177;-65
2023/03/02 00:18:53;;;;;;;27.37;17.70;;;6.70;79.10;;;;;;5046904;28;20183;-65
2023/03/02 00:21:18;;;;;;;31.37;20.97;;;6.70;79.30;;;;;;5034408;28;20555;-65
2023/03/02 00:23:44;;;;;;;33.93;21.30;;;6.70;79.40;;;;;;5050512;28;20192;-66
2023/03/02 00:26:09;;;;;;;30.60;20.93;;;6.60;79.40;;;;;;5050320;28;21417;-64
2023/03/02 00:28:35;;;;;;;26.23;19.87;;;6.60;79.50;;;;;;5047863;28;20275;-65
2023/03/02 00:31:04;;;;;;;28.57;18.47;;;6.60;79.60;;;;;;5048003;28;20190;-64
2023/03/02 00:33:33;;;;;;;29.20;20.33;;;6.60;79.80;;;;;;5047260;28;20221;-64
2023/03/02 00:35:59;;;;;;;31.73;18.93;;;6.60;80.10;;;;;;5045857;28;20472;-65
2023/03/02 00:38:26;;;;;;;32.00;19.33;;;6.60;80.20;;;;;;5048864;28;20456;-65
2023/03/02 00:40:52;;;;;;;27.30;19.23;;;6.60;81.40;;;;;;5047682;28;20466;-65
2023/03/02 00:43:17;;;;;;;28.47;19.07;;;6.50;80.50;;;;;;5047879;28;20444;-65
2023/03/02 00:45:43;;;;;;;27.40;20.00;;;6.50;81.10;;;;;;5051747;28;20186;-65
2023/03/02 00:48:09;;;;;;;30.17;20.03;;;6.40;81.60;;;;;;5050790;28;20415;-65
2023/03/02 00:50:39;;;;;;;29.60;20.20;;;6.40;81.90;;;;;;5046960;28;20187;-64
2023/03/02 00:53:09;;;;;;;33.07;20.60;;;6.40;81.80;;;;;;5047767;28;20736;-64
2023/03/02 00:55:35;;;;;;;27.20;18.77;;;6.40;81.90;;;;;;5047874;28;20546;-64
2023/03/02 00:58:01;;;;;;;24.57;19.30;;;6.30;82.10;;;;;;5048637;28;20511;-64
2023/03/02 01:00:29;;;;;;;29.50;20.53;;;6.30;82.40;;;;;;5048714;28;20441;-65
2023/03/02 01:02:55;;;;;;;28.30;20.23;;;6.30;82.60;;;;;;5030080;28;20214;-64
2023/03/02 01:05:21;;;;;;;30.30;20.40;;;6.30;82.70;;;;;;5049057;28;20862;-65
2023/03/02 01:07:47;;;;;;;26.47;18.87;;;6.20;82.90;;;;;;5045593;28;20457;-65
2023/03/02 01:10:12;;;;;;;32.20;20.77;;;6.20;83.20;;;;;;5046196;28;20223;-64
2023/03/02 01:12:38;;;;;;;29.77;19.90;;;6.20;83.30;;;;;;5050201;28;20304;-64
2023/03/02 01:15:05;;;;;;;31.73;19.77;;;6.20;83.30;;;;;;5047202;28;20211;-64
2023/03/02 01:17:31;;;;;;;28.60;21.03;;;6.20;83.50;;;;;;5052778;28;20474;-64
2023/03/02 01:19:56;;;;;;;33.97;21.00;;;6.20;83.80;;;;;;5050849;28;20444;-65
2023/03/02 01:22:22;;;;;;;29.80;20.33;;;6.10;84.30;;;;;;5053484;28;20187;-65
2023/03/02 01:24:48;;;;;;;30.97;20.07;;;6.10;84.50;;;;;;5052274;28;20196;-65
2023/03/02 01:27:14;;;;;;;27.87;19.63;;;6.10;84.50;;;;;;5051450;28;20254;-65
2023/03/02 01:29:40;;;;;;;30.53;20.63;;;6.10;84.80;;;;;;5055581;28;20445;-65
2023/03/02 01:32:06;;;;;;;30.00;19.50;;;6.00;84.70;;;;;;5051438;28;20188;-65
2023/03/02 01:34:32;;;;;;;32.40;21.70;;;6.00;84.90;;;;;;5051379;28;20245;-65
2023/03/02 01:36:57;;;;;;;32.33;20.50;;;6.00;85.00;;;;;;5052094;28;21191;-65
2023/03/02 01:39:23;;;;;;;30.23;19.60;;;6.00;85.30;;;;;;5048865;28;20685;-65
2023/03/02 01:41:51;;;;;;;28.87;19.93;;;6.00;85.40;;;;;;5052753;28;20360;-64
2023/03/02 01:44:35;;;;;;;27.97;19.20;;;6.00;85.60;;;;;;5050277;28;20188;-64
2023/03/02 01:47:31;;;;;;;34.57;20.40;;;6.00;85.70;;;;;;5055102;28;20500;-64
2023/03/02 01:50:09;;;;;;;31.40;22.27;;;6.00;85.80;;;;;;5045377;28;20565;-64
2023/03/02 01:52:38;;;;;;;33.00;19.73;;;5.90;85.80;;;;;;5049838;28;20498;-64
2023/03/02 01:55:08;;;;;;;30.30;21.40;;;5.90;85.90;;;;;;5053343;28;21004;-64
2023/03/02 01:57:42;;;;;;;33.43;21.80;;;5.90;86.20;;;;;;5054115;28;20461;-64
2023/03/02 02:00:14;;;;;;;27.30;19.90;;;5.90;86.50;;;;;;5053368;28;20444;-64
2023/03/02 02:02:41;;;;;;;32.57;21.30;;;5.80;86.60;;;;;;5047510;28;20438;-64
2023/03/02 02:05:13;;;;;;;31.27;20.60;;;5.80;86.90;;;;;;5049556;28;20437;-64
2023/03/02 02:07:39;;;;;;;32.83;21.03;;;5.80;87.10;;;;;;5045774;28;20547;-64
2023/03/02 02:10:06;;;;;;;35.63;21.40;;;5.80;87.30;;;;;;5051070;28;20441;-64
2023/03/02 02:12:33;;;;;;;31.30;20.80;;;5.80;87.40;;;;;;5048990;28;20445;-64
2023/03/02 02:15:00;;;;;;;35.47;22.07;;;5.80;87.70;;;;;;5048593;28;20473;-64
2023/03/02 02:17:27;;;;;;;36.83;20.70;;;5.80;87.90;;;;;;5050976;28;20453;-64
2023/03/02 02:20:11;;;;;;;33.57;21.30;;;5.80;87.80;;;;;;5053575;28;20792;-65
2023/03/02 02:22:48;;;;;;;34.10;21.57;;;5.80;87.80;;;;;;5049939;28;20469;-65
2023/03/02 02:25:51;;;;;;;32.73;21.43;;;5.80;88.00;;;;;;5050037;28;20438;-65
2023/03/02 02:28:34;;;;;;;29.60;19.80;;;5.80;88.40;;;;;;5029493;28;20456;-64
2023/03/02 02:31:18;;;;;;;30.13;20.30;;;5.70;88.70;;;;;;5050606;28;20442;-64
2023/03/02 02:33:48;;;;;;;33.63;21.67;;;5.70;88.90;;;;;;5049013;28;20433;-65
2023/03/02 02:36:19;;;;;;;35.10;21.90;;;5.70;89.00;;;;;;5050822;28;21144;-65
2023/03/02 02:38:47;;;;;;;31.90;21.50;;;5.70;89.30;;;;;;5048070;28;20461;-65
2023/03/02 02:41:20;;;;;;;29.93;20.67;;;5.70;89.30;;;;;;5050322;28;20472;-66
2023/03/02 02:43:46;;;;;;;37.23;22.20;;;5.70;89.60;;;;;;5050973;28;20444;-65
2023/03/02 02:46:11;;;;;;;33.17;21.27;;;5.60;89.70;;;;;;5050692;28;20465;-65
2023/03/02 02:48:38;;;;;;;33.80;21.77;;;5.60;89.80;;;;;;5047651;28;20433;-65
2023/03/02 02:51:07;;;;;;;31.07;19.60;;;5.60;89.80;;;;;;5049521;28;20600;-66
2023/03/02 02:53:57;;;;;;;31.33;21.23;;;5.60;90.00;;;;;;5053400;28;20441;-66
2023/03/02 02:56:29;;;;;;;39.73;21.77;;;5.60;90.00;;;;;;5049696;28;20476;-66
2023/03/02 02:58:59;;;;;;;33.40;21.57;;;5.60;90.10;;;;;;5050488;28;20434;-66
2023/03/02 03:01:25;;;;;;;34.57;22.23;;;5.60;90.20;;;;;;5051486;28;20434;-66
2023/03/02 03:03:59;;;;;;;32.47;20.60;;;5.60;90.30;;;;;;5050691;28;20520;-65
2023/03/02 03:06:36;;;;;;;34.07;21.50;;;5.50;90.40;;;;;;5049578;28;20466;-65
2023/03/02 03:09:04;;;;;;;39.10;22.37;;;5.60;90.50;;;;;;5053826;28;20510;-65
2023/03/02 03:11:34;;;;;;;34.73;21.43;;;5.50;90.40;;;;;;5052123;28;20449;-66
2023/03/02 03:14:10;;;;;;;34.57;21.00;;;5.50;90.50;;;;;;5053835;28;20441;-66
2023/03/02 03:16:38;;;;;;;43.43;25.20;;;5.50;90.60;;;;;;5052447;28;20469;-66
2023/03/02 03:19:26;;;;;;;30.93;20.00;;;5.50;90.60;;;;;;5052700;28;20437;-66
2023/03/02 03:21:55;;;;;;;33.40;20.43;;;5.50;90.70;;;;;;5051249;28;20901;-66
2023/03/02 03:24:21;;;;;;;34.73;22.20;;;5.50;90.70;;;;;;5051808;28;20444;-65
2023/03/02 03:26:47;;;;;;;32.07;21.40;;;5.50;90.80;;;;;;5047973;28;20469;-64
2023/03/02 03:29:14;;;;;;;31.97;22.30;;;5.50;90.90;;;;;;5046729;28;20860;-64
2023/03/02 03:31:40;;;;;;;35.73;22.67;;;5.50;90.90;;;;;;5053130;28;20515;-64
2023/03/02 03:34:06;;;;;;;34.90;21.90;;;5.50;91.00;;;;;;5045681;28;20437;-65
2023/03/02 03:36:32;;;;;;;33.63;22.27;;;5.50;91.00;;;;;;5050179;28;20297;-64
2023/03/02 03:38:59;;;;;;;32.07;20.73;;;5.40;91.50;;;;;;5049443;28;20520;-64
2023/03/02 03:41:25;;;;;;;35.40;23.53;;;5.40;91.20;;;;;;5052355;28;20748;-65
2023/03/02 03:43:51;;;;;;;38.77;22.57;;;5.40;91.10;;;;;;5044033;28;20445;-65
2023/03/02 03:46:17;;;;;;;30.43;21.33;;;5.40;91.20;;;;;;5055932;28;20477;-65
2023/03/02 03:48:43;;;;;;;40.33;24.53;;;5.40;91.30;;;;;;5048509;28;20445;-65
2023/03/02 03:51:09;;;;;;;29.47;20.33;;;5.40;91.30;;;;;;5051703;28;20259;-65
2023/03/02 03:53:35;;;;;;;31.33;21.50;;;5.40;91.40;;;;;;5053006;28;20789;-65
2023/03/02 03:56:02;;;;;;;31.03;21.50;;;5.40;91.30;;;;;;5053095;28;20520;-65
2023/03/02 03:58:29;;;;;;;35.90;21.30;;;5.40;91.40;;;;;;5047326;28;20437;-64
2023/03/02 04:00:54;;;;;;;33.03;23.13;;;5.40;91.40;;;;;;5043724;28;20799;-65
2023/03/02 04:03:21;;;;;;;32.83;20.50;;;5.40;91.50;;;;;;5048348;28;20429;-64
2023/03/02 04:05:47;;;;;;;33.17;21.87;;;5.40;91.50;;;;;;5044013;28;20219;-64
2023/03/02 04:08:13;;;;;;;31.40;21.60;;;5.40;91.70;;;;;;5045750;28;20795;-64
2023/03/02 04:10:39;;;;;;;31.70;21.60;;;5.40;91.70;;;;;;5052155;28;20443;-65
2023/03/02 04:13:05;;;;;;;34.90;22.47;;;5.40;91.70;;;;;;5047166;28;20183;-64
2023/03/02 04:15:30;;;;;;;33.67;23.07;;;5.40;91.80;;;;;;5045353;28;20489;-65
2023/03/02 04:17:56;;;;;;;30.33;21.80;;;5.40;91.80;;;;;;5051337;28;20211;-62
2023/03/02 04:20:23;;;;;;;34.80;22.67;;;5.30;91.80;;;;;;5053718;28;20569;-64
2023/03/02 04:22:51;;;;;;;35.00;21.83;;;5.30;91.90;;;;;;5052402;28;20183;-65
2023/03/02 04:25:20;;;;;;;34.13;22.90;;;5.30;92.10;;;;;;5051384;28;20440;-63
2023/03/02 04:27:47;;;;;;;36.47;22.33;;;5.20;92.20;;;;;;5050958;28;20452;-64
2023/03/02 04:30:15;;;;;;;33.57;22.00;;;5.30;92.20;;;;;;5044223;28;20449;-66
2023/03/02 04:32:42;;;;;;;35.67;22.10;;;5.30;92.20;;;;;;5046745;28;20530;-65
2023/03/02 04:35:09;;;;;;;31.43;21.93;;;5.30;92.20;;;;;;5042794;28;20525;-65
2023/03/02 04:37:35;;;;;;;32.70;20.30;;;5.30;92.20;;;;;;5045721;28;20982;-65
2023/03/02 04:40:01;;;;;;;34.47;22.23;;;5.20;92.30;;;;;;5053207;28;20441;-65
2023/03/02 04:42:27;;;;;;;35.43;19.90;;;5.20;92.30;;;;;;5050832;28;20548;-66
2023/03/02 04:44:52;;;;;;;29.00;20.80;;;5.20;92.20;;;;;;5048530;28;20177;-65
2023/03/02 04:47:18;;;;;;;30.40;21.17;;;5.10;92.10;;;;;;5047838;28;20349;-65
2023/03/02 04:49:43;;;;;;;32.80;21.10;;;5.10;92.20;;;;;;5048646;28;20223;-65
2023/03/02 04:52:09;;;;;;;38.30;22.00;;;5.10;92.30;;;;;;5051156;28;20257;-66
2023/03/02 04:54:34;;;;;;;31.53;21.27;;;5.00;92.30;;;;;;5049914;28;20218;-66
2023/03/02 04:57:00;;;;;;;33.60;21.70;;;5.00;92.40;;;;;;5047783;28;20756;-66
2023/03/02 04:59:27;;;;;;;34.17;21.30;;;4.90;92.60;;;;;;5053121;28;20248;-65
2023/03/02 05:01:58;;;;;;;31.80;19.73;;;4.90;92.70;;;;;;5049438;28;20190;-65
2023/03/02 05:04:24;;;;;;;33.07;22.20;;;4.90;92.70;;;;;;5048160;28;20415;-65
2023/03/02 05:06:50;;;;;;;32.60;22.10;;;4.80;92.80;;;;;;5046894;28;22041;-65
2023/03/02 05:09:15;;;;;;;34.40;20.60;;;4.80;92.90;;;;;;5065209;28;21363;-65
2023/03/02 05:11:41;;;;;;;29.40;21.10;;;4.80;92.90;;;;;;5050349;28;20210;-65
2023/03/02 05:14:09;;;;;;;30.80;19.63;;;4.80;93.00;;;;;;5048038;28;20197;-65
2023/03/02 05:16:37;;;;;;;30.80;19.83;;;4.80;93.00;;;;;;5050241;28;20193;-65
2023/03/02 05:19:04;;;;;;;30.43;20.03;;;4.70;93.00;;;;;;5049223;28;20494;-65
2023/03/02 05:21:30;;;;;;;33.07;22.27;;;4.70;93.20;;;;;;5044131;28;20441;-65
2023/03/02 05:23:56;;;;;;;33.77;20.73;;;4.60;93.40;;;;;;5049958;28;21026;-65
2023/03/02 05:26:22;;;;;;;35.07;21.80;;;4.60;93.40;;;;;;5054949;28;20203;-65
2023/03/02 05:28:47;;;;;;;35.30;21.07;;;4.70;93.50;;;;;;5045527;28;20286;-65
2023/03/02 05:31:40;;;;;;;31.77;23.37;;;4.60;93.50;;;;;;5066583;28;20736;-65
2023/03/02 05:34:08;;;;;;;29.17;18.10;;;4.60;93.50;;;;;;5043604;28;20550;-65
2023/03/02 05:36:34;;;;;;;33.07;20.43;;;4.60;93.50;;;;;;5045776;28;20588;-64
2023/03/02 05:39:00;;;;;;;32.93;19.63;;;4.60;93.60;;;;;;5047741;28;20931;-65
2023/03/02 05:41:25;;;;;;;34.70;20.53;;;4.60;93.60;;;;;;5049984;28;20183;-64
2023/03/02 05:43:51;;;;;;;33.17;20.93;;;4.60;93.70;;;;;;5050026;28;21436;-63
2023/03/02 05:46:17;;;;;;;33.53;20.70;;;4.60;93.80;;;;;;5048770;28;20583;-63
2023/03/02 05:48:44;;;;;;;37.03;21.67;;;4.50;93.90;;;;;;5049107;28;20445;-64
2023/03/02 05:51:09;;;;;;;27.90;18.90;;;4.50;94.00;;;;;;5045663;28;20257;-64
2023/03/02 05:53:35;;;;;;;35.13;20.77;;;4.50;94.00;;;;;;5048647;28;20436;-64
2023/03/02 05:56:00;;;;;;;27.37;19.77;;;4.50;94.00;;;;;;5045948;28;20217;-64
2023/03/02 05:58:26;;;;;;;32.00;21.50;;;4.50;94.00;;;;;;5051737;28;20911;-64
2023/03/02 06:00:52;;;;;;;37.13;20.70;;;4.50;94.00;;;;;;5052133;28;20176;-65
2023/03/02 06:03:18;;;;;;;29.60;19.40;;;4.50;94.10;;;;;;5055994;28;20579;-65
2023/03/02 06:05:44;;;;;;;30.70;18.90;;;4.50;94.10;;;;;;5056104;28;20198;-64
2023/03/02 06:08:09;;;;;;;29.20;19.13;;;4.50;94.20;;;;;;5053152;28;20187;-65
2023/03/02 06:10:35;;;;;;;36.23;20.93;;;4.40;94.20;;;;;;5051098;28;20273;-65
2023/03/02 06:13:00;;;;;;;32.50;18.63;;;4.40;94.30;;;;;;5049798;28;20184;-65
2023/03/02 06:15:29;;;;;;;36.83;20.07;;;4.40;94.40;;;;;;5045450;28;20281;-65
2023/03/02 06:17:56;;;;;;;32.93;20.87;;;4.40;94.40;;;;;;5050623;28;20294;-65
2023/03/02 06:20:22;;;;;;;37.27;20.27;;;4.40;94.40;;;;;;5054352;28;20406;-64
2023/03/02 06:22:47;;;;;;;33.60;20.53;;;4.40;94.50;;;;;;5053761;28;20433;-64
2023/03/02 06:25:16;;;;;;;32.93;20.30;;;4.40;94.50;;;;;;5049200;28;20435;-64
2023/03/02 06:27:42;;;;;;;33.63;21.43;;;4.40;94.60;;;;;;5050450;28;20252;-64
2023/03/02 06:30:12;;;;;;;31.13;19.30;;;4.40;94.70;;;;;;5051402;28;20445;-64
2023/03/02 06:32:37;;;;;;;32.37;20.67;;;4.40;94.70;;;;;;5049506;28;20420;-64
2023/03/02 06:35:05;;;;;;;29.87;19.87;;;4.40;94.70;;;;;;5047511;28;20466;-64
2023/03/02 06:37:31;;;;;;;33.03;18.57;;;4.40;94.80;;;;;;5051728;28;20203;-64
2023/03/02 06:39:57;;;;;;;36.10;21.10;;;4.40;94.80;;;;;;5049966;28;20455;-64
2023/03/02 06:42:28;;;;;;;29.40;19.97;;;4.30;94.80;;;;;;5048369;28;20513;-65
2023/03/02 06:44:54;;;;;;;36.20;20.80;;;4.30;95.00;;;;;;5045091;28;20433;-64
2023/03/02 06:47:20;;;;;;;32.27;18.97;;;4.30;95.10;;;;;;5048929;28;20464;-65
2023/03/02 06:49:46;;;;;;;30.73;19.37;;;4.40;95.20;;;;;;5050099;28;20206;-65
2023/03/02 06:52:13;;;;;;;31.00;20.63;;;4.40;96.60;;;;;;5054334;28;20430;-64
2023/03/02 06:54:39;;;;;;;30.60;19.37;;;4.40;96.10;;;;;;5047856;28;20211;-64
2023/03/02 06:57:04;;;;;;;24.63;17.93;;;4.40;96.00;;;;;;5052895;28;20430;-64
2023/03/02 06:59:30;;;;;;;31.77;21.07;;;4.40;96.00;;;;;;5049809;28;20509;-64
2023/03/02 07:01:55;;;;;;;32.03;20.87;;;4.50;96.00;;;;;;5053891;28;20629;-63
2023/03/02 07:04:21;;;;;;;32.13;20.83;;;4.50;95.90;;;;;;5046395;28;20187;-64
2023/03/02 07:06:46;;;;;;;33.47;21.13;;;4.50;95.90;;;;;;5051667;28;20207;-64
2023/03/02 07:09:13;;;;;;;35.70;20.67;;;4.50;95.80;;;;;;5049996;28;20179;-64
2023/03/02 07:11:38;;;;;;;34.10;19.87;;;4.50;95.80;;;;;;5047874;28;20187;-65
2023/03/02 07:14:04;;;;;;;26.90;19.50;;;4.50;95.80;;;;;;5048818;28;20784;-67
2023/03/02 07:16:30;;;;;;;35.73;20.77;;;4.50;95.90;;;;;;5052338;28;20210;-67
2023/03/02 07:18:55;;;;;;;32.17;20.30;;;4.50;96.00;;;;;;5050234;28;20229;-67
2023/03/02 07:21:21;;;;;;;36.17;20.40;;;4.60;96.00;;;;;;5054037;28;20562;-67
2023/03/02 07:23:46;;;;;;;29.93;19.50;;;4.60;96.00;;;;;;5047642;28;20179;-68
2023/03/02 07:26:12;;;;;;;32.33;20.10;;;4.60;96.00;;;;;;5055397;28;20231;-68
2023/03/02 07:28:40;;;;;;;32.77;20.50;;;4.60;96.10;;;;;;5054987;28;20191;-65
2023/03/02 07:31:07;;;;;;;36.07;22.60;;;4.60;96.20;;;;;;5050274;28;20234;-68
2023/03/02 07:33:32;;;;;;;33.00;19.10;;;4.60;96.30;;;;;;5046041;28;20455;-67
2023/03/02 07:35:58;;;;;;;32.33;20.13;;;4.60;96.30;;;;;;5048732;28;20461;-66
2023/03/02 07:38:24;;;;;;;36.93;22.30;;;4.70;96.30;;;;;;5053261;28;20175;-66
2023/03/02 07:40:50;;;;;;;30.43;19.23;;;4.70;96.40;;;;;;5048365;28;20671;-66
2023/03/02 07:43:16;;;;;;;35.40;20.80;;;4.70;96.40;;;;;;5050934;28;20172;-66
2023/03/02 07:45:41;;;;;;;30.47;19.83;;;4.80;96.40;;;;;;5047764;28;20502;-66
2023/03/02 07:48:07;;;;;;;43.67;21.40;;;4.80;96.40;;;;;;5047828;28;20532;-66
2023/03/02 07:50:33;;;;;;;33.90;20.50;;;4.80;96.50;;;;;;5051572;28;20567;-66
2023/03/02 07:52:59;;;;;;;29.87;19.60;;;4.80;96.40;;;;;;5049994;28;20230;-66
2023/03/02 07:55:24;;;;;;;32.70;21.07;;;4.90;96.40;;;;;;5047882;28;20548;-65
2023/03/02 07:57:50;;;;;;;32.13;20.50;;;5.00;96.50;;;;;;5048121;28;20215;-67
2023/03/02 08:00:16;;;;;;;32.70;22.00;;;4.90;96.40;;;;;;5046025;28;20176;-66
2023/03/02 08:02:42;;;;;;;34.27;21.93;;;5.00;96.40;;;;;;5044549;28;20182;-65
2023/03/02 08:05:09;;;;;;;30.47;20.00;;;5.00;96.40;;;;;;5050333;28;20429;-68
2023/03/02 08:07:35;;;;;;;33.47;21.63;;;5.10;96.40;;;;;;5046934;28;20210;-65
2023/03/02 08:10:00;;;;;;;30.47;19.80;;;5.10;96.40;;;;;;5048106;28;20817;-68
2023/03/02 08:12:27;;;;;;;34.30;21.10;;;5.10;96.40;;;;;;5053987;28;20198;-66
2023/03/02 08:14:53;;;;;;;35.50;21.40;;;5.20;96.40;;;;;;5049150;28;20207;-66
2023/03/02 08:17:18;;;;;;;38.63;22.43;;;5.20;96.40;;;;;;5046777;28;20438;-68
2023/03/02 08:19:44;;;;;;;33.50;22.27;;;5.20;96.50;;;;;;5044623;28;20207;-66
2023/03/02 08:22:10;;;;;;;37.50;21.70;;;5.30;96.60;;;;;;5053604;28;20205;-67
2023/03/02 08:24:36;;;;;;;34.77;21.30;;;5.30;96.50;;;;;;5050739;28;20798;-67
2023/03/02 08:27:02;;;;;;;33.10;21.20;;;5.40;96.40;;;;;;5049880;28;20211;-68
2023/03/02 08:29:28;;;;;;;32.37;21.07;;;5.40;96.20;;;;;;5045998;28;21130;-69
2023/03/02 08:31:54;;;;;;;37.13;21.10;;;5.50;96.40;;;;;;5049908;28;20433;-68
2023/03/02 08:34:19;;;;;;;35.90;22.07;;;5.50;96.40;;;;;;5044167;28;20499;-68
2023/03/02 08:36:45;;;;;;;36.67;21.10;;;5.60;96.50;;;;;;5049117;28;20718;-69
2023/03/02 08:39:11;;;;;;;43.73;23.13;;;5.60;96.50;;;;;;5047940;28;20190;-68
2023/03/02 08:41:37;;;;;;;32.60;21.03;;;5.60;96.40;;;;;;5051160;28;20213;-67
2023/03/02 08:44:02;;;;;;;43.07;21.70;;;5.60;96.60;;;;;;5048227;28;20465;-67
2023/03/02 08:46:29;;;;;;;31.93;21.93;;;5.70;96.60;;;;;;5047502;28;20222;-67
2023/03/02 08:48:54;;;;;;;36.63;22.37;;;5.80;96.60;;;;;;5045937;28;20685;-67
2023/03/02 08:51:23;;;;;;;36.33;21.60;;;5.80;96.50;;;;;;5045732;28;20403;-66
2023/03/02 08:53:50;;;;;;;33.20;19.70;;;5.90;96.50;;;;;;5048832;28;20202;-66
2023/03/02 08:56:28;;;;;;;33.17;20.57;;;6.00;96.20;;;;;;5048254;28;20531;-65
2023/03/02 08:58:56;;;;;;;37.33;20.83;;;6.00;96.20;;;;;;5046977;28;20439;-65
2023/03/02 09:01:31;;;;;;;28.30;19.03;;;6.10;96.10;;;;;;5051676;28;20427;-65
2023/03/02 09:03:59;;;;;;;28.57;19.63;;;6.20;96.20;;;;;;5060808;28;20456;-66
2023/03/02 09:06:28;;;;;;;32.90;19.90;;;6.20;96.20;;;;;;5051098;28;20465;-66
2023/03/02 09:08:54;;;;;;;33.33;21.17;;;6.20;96.20;;;;;;5046470;28;20465;-67
2023/03/02 09:11:20;;;;;;;33.43;20.17;;;6.30;96.10;;;;;;5054722;28;21059;-66
2023/03/02 09:13:45;;;;;;;33.60;22.17;;;6.40;96.10;;;;;;5045454;28;20458;-66
2023/03/02 09:16:12;;;;;;;34.17;20.97;;;6.40;96.10;;;;;;5049427;28;20344;-67
2023/03/02 09:18:37;;;;;;;32.43;21.37;;;6.40;96.10;;;;;;5045509;28;20222;-67
2023/03/02 09:21:03;;;;;;;30.90;19.37;;;6.50;96.00;;;;;;5050306;28;20472;-67
2023/03/02 09:23:29;;;;;;;34.80;21.50;;;6.60;96.00;;;;;;5049543;28;20290;-66
2023/03/02 09:25:55;;;;;;;30.60;20.67;;;6.60;96.00;;;;;;5046033;28;20514;-67
2023/03/02 09:28:21;;;;;;;33.93;21.13;;;6.70;96.00;;;;;;5050397;28;20803;-65
2023/03/02 09:30:49;;;;;;;30.30;19.93;;;6.80;95.70;;;;;;5049611;28;20191;-64
2023/03/02 09:33:15;;;;;;;31.00;20.17;;;6.80;95.80;;;;;;5055167;28;20422;-66
2023/03/02 09:35:41;;;;;;;29.63;19.70;;;6.90;95.70;;;;;;5050508;28;21019;-64
2023/03/02 09:38:06;;;;;;;28.97;19.07;;;7.00;95.70;;;;;;5048476;28;20183;-66
2023/03/02 09:40:37;;;;;;;32.10;20.50;;;7.00;95.60;;;;;;5054368;28;20672;-66
2023/03/02 09:43:05;;;;;;;31.07;20.40;;;7.10;95.50;;;;;;5054457;28;20176;-66
2023/03/02 09:45:50;;;;;;;54.43;31.93;;;7.10;95.50;;;;;;5052783;28;20460;-66
2023/03/02 09:48:52;;;;;;;34.67;22.53;;;7.20;95.50;;;;;;5052324;28;20450;-67
2023/03/02 09:51:34;;;;;;;33.10;22.10;;;7.30;95.50;;;;;;5052146;28;20432;-66
2023/03/02 09:54:19;;;;;;;34.30;20.47;;;7.30;95.50;;;;;;5048171;28;20441;-64
2023/03/02 09:56:56;;;;;;;34.90;19.80;;;7.40;95.40;;;;;;5051184;28;20560;-65
2023/03/02 09:59:27;;;;;;;29.00;20.97;;;7.50;95.40;;;;;;5048185;28;20452;-65
2023/03/02 10:02:22;;;;;;;29.87;20.80;;;7.60;95.20;;;;;;5055345;28;20437;-64
2023/03/02 10:04:50;;;;;;;28.27;19.93;;;7.60;95.20;;;;;;5051801;28;20422;-64
2023/03/02 10:07:28;;;;;;;35.17;21.70;;;7.70;95.00;;;;;;5049777;28;20946;-65
2023/03/02 10:10:05;;;;;;;31.00;21.10;;;7.80;95.10;;;;;;5050998;28;20487;-66
2023/03/02 10:13:13;;;;;;;29.43;19.80;;;7.90;95.10;;;;;;5050025;28;20571;-66
2023/03/02 10:15:48;;;;;;;30.33;20.37;;;8.00;94.90;;;;;;5050265;28;21016;-64
2023/03/02 10:18:43;;;;;;;26.70;18.83;;;8.10;94.70;;;;;;5055801;28;20486;-65
2023/03/02 10:21:22;;;;;;;29.47;20.43;;;8.20;94.70;;;;;;5053302;28;20845;-66
2023/03/02 10:24:11;;;;;;;27.30;18.57;;;8.30;94.60;;;;;;5049626;28;20433;-66
2023/03/02 10:26:50;;;;;;;31.40;20.30;;;8.40;94.50;;;;;;5046929;28;21124;-65
2023/03/02 10:29:33;;;;;;;29.00;19.13;;;8.40;94.40;;;;;;5053544;28;20447;-65
2023/03/02 10:32:13;;;;;;;28.67;19.10;;;8.50;94.40;;;;;;5050411;28;20425;-65
2023/03/02 10:34:38;;;;;;;33.03;21.17;;;8.60;94.40;;;;;;5051709;28;21111;-65
2023/03/02 10:37:23;;;;;;;35.47;21.53;;;8.60;94.10;;;;;;5050754;28;20445;-64
2023/03/02 10:39:50;;;;;;;32.67;21.03;;;8.70;94.00;;;;;;5051655;28;20233;-65
2023/03/02 10:42:27;;;;;;;31.77;21.53;;;8.70;94.00;;;;;;5051214;28;20424;-64
2023/03/02 10:45:01;;;;;;;32.67;19.80;;;8.80;94.00;;;;;;5052358;28;21086;-65
2023/03/02 10:47:28;;;;;;;26.00;18.70;;;8.80;94.00;;;;;;5054168;28;20530;-65
2023/03/02 10:49:55;;;;;;;33.17;20.27;;;8.90;93.90;;;;;;5051448;28;20444;-65
2023/03/02 10:52:23;;;;;;;26.97;19.37;;;9.00;93.80;;;;;;5050185;28;20434;-65
2023/03/02 10:55:00;;;;;;;25.83;18.27;;;9.00;93.60;;;;;;5044343;28;21033;-65
2023/03/02 10:57:36;;;;;;;29.80;20.30;;;9.10;93.60;;;;;;5050067;28;20456;-66
2023/03/02 11:00:24;;;;;;;28.30;19.70;;;9.10;93.40;;;;;;5049346;28;20434;-66
2023/03/02 11:02:56;;;;;;;33.93;21.70;;;9.20;93.50;;;;;;5047843;28;20452;-65
2023/03/02 11:05:37;;;;;;;25.53;19.70;;;9.20;93.40;;;;;;5051132;28;20567;-65
2023/03/02 11:08:06;;;;;;;33.10;22.50;;;9.30;93.20;;;;;;5043035;28;20449;-66
2023/03/02 11:10:38;;;;;;;33.03;21.63;;;9.20;92.90;;;;;;5046259;28;20496;-66
2023/03/02 11:13:27;;;;;;;30.93;20.77;;;9.20;93.00;;;;;;5050114;28;20451;-65
2023/03/02 11:15:56;;;;;;;28.83;20.63;;;9.30;93.10;;;;;;5043985;28;20462;-64
2023/03/02 11:18:39;;;;;;;29.50;20.70;;;9.20;92.70;;;;;;5052400;28;20418;-65
2023/03/02 11:21:10;;;;;;;32.00;20.20;;;9.10;92.80;;;;;;5047430;28;20580;-65
2023/03/02 11:23:50;;;;;;;27.87;19.80;;;9.20;93.00;;;;;;5051370;28;20425;-64
2023/03/02 11:26:26;;;;;;;28.87;19.17;;;9.30;93.10;;;;;;5054259;28;20456;-65
2023/03/02 11:28:55;;;;;;;27.00;19.00;;;9.40;93.10;;;;;;5047361;28;20530;-65
2023/03/02 11:31:40;;;;;;;26.33;19.80;;;9.40;93.10;;;;;;5049501;28;20580;-66
2023/03/02 11:34:30;;;;;;;29.07;21.00;;;9.40;93.20;;;;;;5046927;28;20547;-65
2023/03/02 11:37:22;;;;;;;28.13;19.73;;;9.50;93.10;;;;;;5039171;28;20851;-65
2023/03/02 11:39:47;;;;;;;29.90;20.07;;;9.60;93.20;;;;;;5045650;28;20449;-66
2023/03/02 11:42:38;;;;;;;31.13;21.00;;;9.70;92.90;;;;;;5047134;28;20941;-66
2023/03/02 11:45:13;;;;;;;28.43;20.50;;;9.70;92.60;;;;;;5050093;28;20195;-65
2023/03/02 11:47:45;;;;;;;26.30;20.20;;;9.60;92.90;;;;;;5050745;28;20789;-65
2023/03/02 11:50:14;;;;;;;33.37;20.83;;;9.60;92.70;;;;;;5048157;28;20442;-67
2023/03/02 11:52:46;;;;;;;28.60;19.90;;;9.80;92.80;;;;;;5049237;28;20970;-66
2023/03/02 11:55:21;;;;;;;27.17;19.20;;;9.90;92.60;;;;;;5048760;28;20506;-66
2023/03/02 11:58:00;;;;;;;28.33;18.47;;;10.00;91.80;;;;;;5047530;28;20465;-67
2023/03/02 12:00:38;;;;;;;31.77;21.87;;;10.00;91.60;;;;;;5047192;28;20486;-67
2023/03/02 12:03:21;;;;;;;34.07;19.60;;;10.10;92.20;;;;;;5044712;28;20421;-67
2023/03/02 12:06:23;;;;;;;25.97;20.00;;;10.10;91.60;;;;;;5047958;28;21059;-67
2023/03/02 12:08:53;;;;;;;28.77;19.40;;;10.30;91.70;;;;;;5046130;28;20441;-66
2023/03/02 12:11:18;;;;;;;29.23;19.87;;;10.50;91.90;;;;;;5050665;28;20962;-67
2023/03/02 12:14:03;;;;;;;30.30;20.97;;;11.20;93.20;;;;;;5054312;28;20425;-67
2023/03/02 12:16:37;;;;;;;25.23;18.60;;;13.30;92.00;;;;;;5047111;28;20211;-65
2023/03/02 12:19:26;;;;;;;29.10;20.77;;;15.00;89.10;;;;;;5044945;28;20422;-67
2023/03/02 12:21:56;;;;;;;29.37;20.93;;;16.60;83.60;;;;;;5050175;28;20418;-65
2023/03/02 12:24:33;;;;;;;24.00;20.57;;;17.80;80.40;;;;;;5050365;28;20435;-66
2023/03/02 12:27:27;;;;;;;24.90;20.47;;;18.70;73.60;;;;;;5047703;28;20473;-66
2023/03/02 12:29:55;;;;;;;23.90;20.40;;;19.50;69.50;;;;;;5043910;28;20460;-64
2023/03/02 12:32:26;;;;;;;28.97;21.50;;;20.40;66.70;;;;;;5047838;28;20576;-65
2023/03/02 12:35:06;;;;;;;30.97;22.10;;;21.10;62.20;;;;;;5043475;28;20469;-65
2023/03/02 12:37:41;;;;;;;27.83;21.60;;;21.60;58.70;;;;;;5049889;28;20845;-65
2023/03/02 12:40:22;;;;;;;26.50;20.63;;;21.60;55.70;;;;;;5047490;28;20437;-65
2023/03/02 12:43:12;;;;;;;32.50;22.37;;;22.10;55.00;;;;;;5052013;28;20417;-66
2023/03/02 12:46:02;;;;;;;24.37;21.53;;;22.80;53.60;;;;;;5045371;28;20454;-64
2023/03/02 12:48:37;;;;;;;24.57;21.97;;;23.20;52.20;;;;;;5041207;28;20533;-64
2023/03/02 12:51:04;;;;;;;22.47;20.10;;;23.30;50.90;;;;;;5047044;28;20586;-64